createdAt,value
2022-12-20T00:00:30.959Z,0.00
2022-12-20T00:01:31.120Z,0.00
2022-12-20T00:02:31.153Z,0.00
2022-12-20T00:03:31.182Z,0.00
2022-12-20T00:04:30.831Z,0.00
2022-12-20T00:05:30.945Z,0.00
2022-12-20T00:06:30.750Z,0.00
2022-12-20T00:07:30.790Z,0.00
2022-12-20T00:08:31.394Z,0.00
2022-12-20T00:09:30.700Z,0.00
2022-12-20T00:10:30.751Z,0.00
2022-12-20T00:11:30.828Z,0.00
2022-12-20T00:12:30.737Z,0.00
2022-12-20T00:13:30.739Z,0.00
2022-12-20T00:14:30.892Z,0.00
2022-12-20T00:15:30.730Z,0.00
2022-12-20T00:16:30.859Z,0.00
2022-12-20T00:17:30.937Z,0.00
2022-12-20T00:18:30.870Z,0.00
2022-12-20T00:19:31.157Z,0.00
2022-12-20T00:20:30.547Z,0.00
2022-12-20T00:21:30.897Z,0.00
2022-12-20T00:22:30.996Z,0.00
2022-12-20T00:23:30.909Z,0.00
2022-12-20T00:24:30.757Z,0.00
2022-12-20T00:25:30.606Z,0.00
2022-12-20T00:26:30.488Z,0.00
2022-12-20T00:27:30.696Z,0.00
2022-12-20T00:28:30.533Z,0.00
2022-12-20T00:29:30.673Z,0.00
2022-12-20T00:30:30.700Z,0.00
2022-12-20T00:31:31.272Z,0.00
2022-12-20T00:32:30.750Z,0.00
2022-12-20T00:33:30.848Z,0.00
2022-12-20T00:34:30.863Z,0.00
2022-12-20T00:35:30.849Z,0.00
2022-12-20T00:36:30.987Z,0.00
2022-12-20T00:37:31.257Z,0.00
2022-12-20T00:38:30.396Z,0.00
2022-12-20T00:39:31.170Z,0.00
2022-12-20T00:40:31.211Z,0.00
2022-12-20T00:41:31.241Z,0.00
2022-12-20T00:42:31.348Z,0.00
2022-12-20T00:43:31.696Z,0.00
2022-12-20T00:44:31.276Z,0.00
2022-12-20T00:45:31.246Z,0.00
2022-12-20T00:46:31.551Z,0.00
2022-12-20T00:47:31.359Z,0.00
2022-12-20T00:48:31.062Z,0.00
2022-12-20T00:49:31.368Z,0.00
2022-12-20T00:50:30.172Z,0.00
2022-12-20T00:51:30.289Z,0.00
2022-12-20T00:52:30.958Z,0.00
2022-12-20T00:53:30.530Z,0.00
2022-12-20T00:54:31.096Z,0.00
2022-12-20T00:55:30.101Z,0.00
2022-12-20T00:56:30.120Z,0.00
2022-12-20T00:57:30.197Z,0.00
2022-12-20T00:58:30.218Z,0.00
2022-12-20T00:59:30.057Z,0.00
2022-12-20T01:00:30.325Z,0.00
2022-12-20T01:01:30.737Z,0.00
2022-12-20T01:02:30.580Z,0.00
2022-12-20T01:03:30.617Z,0.00
2022-12-20T01:04:30.541Z,0.00
2022-12-20T01:05:30.747Z,0.00
2022-12-20T01:06:30.659Z,0.00
2022-12-20T01:07:30.789Z,0.00
2022-12-20T01:08:30.681Z,0.00
2022-12-20T01:09:30.770Z,0.00
2022-12-20T01:10:30.091Z,0.00
2022-12-20T01:11:30.664Z,0.00
2022-12-20T01:12:31.109Z,0.00
2022-12-20T01:13:30.574Z,0.00
2022-12-20T01:14:31.313Z,0.00
2022-12-20T01:15:29.860Z,0.00
2022-12-20T01:16:30.930Z,0.00
2022-12-20T01:17:30.596Z,0.00
2022-12-20T01:18:30.027Z,0.00
2022-12-20T01:19:30.678Z,0.00
2022-12-20T01:20:30.550Z,0.00
2022-12-20T01:21:30.750Z,0.00
2022-12-20T01:22:30.642Z,0.00
2022-12-20T01:23:30.542Z,0.00
2022-12-20T01:24:31.138Z,0.00
2022-12-20T01:25:29.729Z,0.00
2022-12-20T01:26:29.757Z,0.00
2022-12-20T01:27:29.875Z,0.00
2022-12-20T01:28:29.880Z,0.00
2022-12-20T01:29:29.791Z,0.00
2022-12-20T01:30:29.890Z,0.00
2022-12-20T01:31:30.033Z,0.00
2022-12-20T01:32:30.420Z,0.00
2022-12-20T01:33:30.231Z,0.00
2022-12-20T01:34:30.219Z,0.00
2022-12-20T01:35:30.332Z,0.00
2022-12-20T01:36:30.024Z,0.00
2022-12-20T01:37:30.394Z,0.00
2022-12-20T01:38:30.374Z,0.00
2022-12-20T01:39:30.361Z,0.00
2022-12-20T01:40:30.438Z,0.00
2022-12-20T01:41:30.371Z,0.00
2022-12-20T01:42:30.259Z,0.00
2022-12-20T01:43:30.409Z,0.00
2022-12-20T01:44:30.305Z,0.00
2022-12-20T01:45:30.295Z,0.00
2022-12-20T01:46:31.017Z,0.00
2022-12-20T01:47:30.956Z,0.00
2022-12-20T01:48:34.338Z,0.00
2022-12-20T01:49:30.030Z,0.00
2022-12-20T01:50:30.255Z,0.00
2022-12-20T01:51:30.597Z,0.00
2022-12-20T01:52:30.315Z,0.00
2022-12-20T01:53:30.218Z,0.00
2022-12-20T01:54:29.348Z,0.00
2022-12-20T01:55:29.399Z,0.00
2022-12-20T01:56:29.445Z,0.00
2022-12-20T01:57:30.066Z,0.00
2022-12-20T01:58:29.575Z,0.00
2022-12-20T01:59:29.615Z,0.00
2022-12-20T02:00:29.690Z,0.00
2022-12-20T02:01:29.896Z,0.00
2022-12-20T02:02:29.913Z,0.00
2022-12-20T02:03:29.345Z,0.00
2022-12-20T02:04:29.913Z,0.00
2022-12-20T02:05:29.605Z,0.00
2022-12-20T02:06:29.994Z,0.00
2022-12-20T02:07:29.898Z,0.00
2022-12-20T02:08:30.146Z,0.00
2022-12-20T02:09:29.970Z,0.00
2022-12-20T02:10:30.253Z,0.00
2022-12-20T02:11:30.030Z,0.00
2022-12-20T02:12:30.366Z,0.00
2022-12-20T02:13:29.785Z,0.00
2022-12-20T02:14:29.301Z,0.00
2022-12-20T02:15:29.908Z,0.00
2022-12-20T02:16:29.883Z,0.00
2022-12-20T02:17:29.958Z,0.00
2022-12-20T02:18:29.051Z,0.00
2022-12-20T02:19:29.761Z,0.00
2022-12-20T02:20:29.942Z,0.00
2022-12-20T02:21:30.251Z,0.00
2022-12-20T02:22:29.761Z,0.00
2022-12-20T02:23:28.988Z,0.00
2022-12-20T02:24:29.000Z,0.00
2022-12-20T02:25:29.051Z,0.00
2022-12-20T02:26:29.271Z,0.00
2022-12-20T02:27:29.170Z,0.00
2022-12-20T02:28:28.935Z,0.00
2022-12-20T02:29:29.309Z,0.00
2022-12-20T02:30:28.892Z,0.00
2022-12-20T02:31:29.449Z,0.00
2022-12-20T02:32:28.903Z,0.00
2022-12-20T02:33:29.591Z,0.00
2022-12-20T02:34:29.579Z,0.00
2022-12-20T02:35:29.069Z,0.00
2022-12-20T02:36:28.808Z,0.00
2022-12-20T02:37:29.587Z,0.00
2022-12-20T02:38:28.800Z,0.00
2022-12-20T02:39:28.783Z,0.00
2022-12-20T02:40:28.780Z,0.00
2022-12-20T02:41:28.832Z,0.00
2022-12-20T02:42:28.759Z,0.00
2022-12-20T02:43:28.860Z,0.00
2022-12-20T02:44:28.757Z,0.00
2022-12-20T02:45:28.926Z,0.00
2022-12-20T02:46:28.801Z,0.00
2022-12-20T02:47:28.756Z,0.00
2022-12-20T02:48:28.760Z,0.00
2022-12-20T02:49:28.856Z,0.00
2022-12-20T02:50:28.755Z,0.00
2022-12-20T02:51:28.762Z,0.00
2022-12-20T02:52:28.676Z,0.00
2022-12-20T02:53:28.662Z,0.00
2022-12-20T02:54:28.803Z,0.00
2022-12-20T02:55:28.762Z,0.00
2022-12-20T02:56:28.768Z,0.00
2022-12-20T02:57:28.783Z,0.00
2022-12-20T02:58:28.779Z,0.00
2022-12-20T02:59:28.774Z,0.00
2022-12-20T03:00:28.524Z,0.00
2022-12-20T03:01:28.899Z,0.00
2022-12-20T03:02:28.913Z,0.00
2022-12-20T03:03:28.799Z,0.00
2022-12-20T03:04:28.872Z,0.00
2022-12-20T03:05:28.867Z,0.00
2022-12-20T03:06:28.778Z,0.00
2022-12-20T03:07:28.779Z,0.00
2022-12-20T03:08:28.787Z,0.00
2022-12-20T03:09:28.598Z,0.00
2022-12-20T03:10:28.818Z,0.00
2022-12-20T03:11:28.793Z,0.00
2022-12-20T03:12:28.816Z,0.00
2022-12-20T03:13:28.813Z,0.00
2022-12-20T03:14:28.823Z,0.00
2022-12-20T03:15:28.821Z,0.00
2022-12-20T03:16:28.856Z,0.00
2022-12-20T03:17:28.761Z,0.00
2022-12-20T03:18:28.802Z,0.00
2022-12-20T03:19:28.852Z,0.00
2022-12-20T03:20:28.282Z,0.00
2022-12-20T03:21:28.244Z,0.00
2022-12-20T03:22:28.361Z,0.00
2022-12-20T03:23:28.377Z,0.00
2022-12-20T03:24:28.482Z,0.00
2022-12-20T03:25:28.510Z,0.00
2022-12-20T03:26:28.608Z,0.00
2022-12-20T03:27:28.611Z,0.00
2022-12-20T03:28:28.191Z,0.00
2022-12-20T03:29:28.752Z,0.00
2022-12-20T03:30:28.823Z,0.00
2022-12-20T03:31:28.422Z,0.00
2022-12-20T03:32:28.829Z,0.00
2022-12-20T03:33:28.910Z,0.00
2022-12-20T03:34:28.086Z,0.00
2022-12-20T03:35:28.847Z,0.00
2022-12-20T03:36:28.096Z,0.00
2022-12-20T03:37:28.869Z,0.00
2022-12-20T03:38:28.783Z,0.00
2022-12-20T03:39:28.731Z,0.00
2022-12-20T03:40:28.809Z,0.00
2022-12-20T03:41:28.104Z,0.00
2022-12-20T03:42:28.806Z,0.00
2022-12-20T03:43:27.985Z,0.00
2022-12-20T03:44:28.162Z,0.00
2022-12-20T03:45:28.682Z,0.00
2022-12-20T03:46:28.081Z,0.00
2022-12-20T03:47:27.906Z,0.00
2022-12-20T03:48:27.919Z,0.00
2022-12-20T03:49:27.989Z,0.00
2022-12-20T03:50:27.922Z,0.00
2022-12-20T03:51:27.938Z,0.00
2022-12-20T03:52:28.047Z,0.00
2022-12-20T03:53:27.882Z,0.00
2022-12-20T03:54:27.853Z,0.00
2022-12-20T03:55:27.961Z,0.00
2022-12-20T03:56:27.873Z,0.00
2022-12-20T03:57:27.868Z,0.00
2022-12-20T03:58:27.879Z,0.00
2022-12-20T03:59:27.998Z,0.00
2022-12-20T04:00:27.915Z,0.00
2022-12-20T04:01:27.882Z,0.00
2022-12-20T04:02:28.123Z,0.00
2022-12-20T04:03:28.083Z,0.00
2022-12-20T04:04:27.743Z,0.00
2022-12-20T04:05:27.941Z,0.00
2022-12-20T04:06:28.438Z,0.00
2022-12-20T04:07:27.928Z,0.00
2022-12-20T04:08:27.635Z,0.00
2022-12-20T04:09:27.668Z,0.00
2022-12-20T04:10:27.663Z,0.00
2022-12-20T04:11:27.763Z,0.00
2022-12-20T04:12:27.672Z,0.00
2022-12-20T04:13:27.676Z,0.00
2022-12-20T04:14:28.469Z,0.00
2022-12-20T04:15:27.695Z,0.00
2022-12-20T04:16:27.815Z,0.00
2022-12-20T04:17:27.526Z,0.00
2022-12-20T04:18:27.537Z,0.00
2022-12-20T04:19:27.525Z,0.00
2022-12-20T04:20:27.514Z,0.00
2022-12-20T04:21:27.524Z,0.00
2022-12-20T04:22:27.462Z,0.00
2022-12-20T04:23:27.461Z,0.00
2022-12-20T04:24:27.537Z,0.00
2022-12-20T04:25:27.470Z,0.00
2022-12-20T04:26:27.554Z,0.00
2022-12-20T04:27:28.210Z,0.00
2022-12-20T04:28:28.113Z,0.00
2022-12-20T04:29:27.491Z,0.00
2022-12-20T04:30:27.468Z,0.00
2022-12-20T04:31:27.556Z,0.00
2022-12-20T04:32:27.479Z,0.00
2022-12-20T04:33:27.501Z,0.00
2022-12-20T04:34:28.088Z,0.00
2022-12-20T04:35:27.497Z,0.00
2022-12-20T04:36:27.512Z,0.00
2022-12-20T04:37:27.512Z,0.00
2022-12-20T04:38:27.530Z,0.00
2022-12-20T04:39:27.439Z,0.00
2022-12-20T04:40:27.242Z,0.00
2022-12-20T04:41:27.442Z,0.00
2022-12-20T04:42:27.449Z,0.00
2022-12-20T04:43:27.431Z,0.00
2022-12-20T04:44:27.222Z,0.00
2022-12-20T04:45:27.464Z,0.00
2022-12-20T04:46:27.215Z,0.00
2022-12-20T04:47:27.194Z,0.00
2022-12-20T04:49:28.142Z,0.00
2022-12-20T04:50:27.305Z,0.00
2022-12-20T04:51:27.412Z,0.00
2022-12-20T04:52:27.114Z,0.00
2022-12-20T04:53:27.510Z,0.00
2022-12-20T04:54:27.943Z,0.00
2022-12-20T04:55:27.438Z,0.00
2022-12-20T04:56:27.439Z,0.00
2022-12-20T04:57:27.431Z,0.00
2022-12-20T04:58:27.442Z,0.00
2022-12-20T04:59:27.450Z,0.00
2022-12-20T05:00:27.451Z,0.00
2022-12-20T05:01:27.573Z,0.00
2022-12-20T05:02:27.685Z,0.00
2022-12-20T05:03:27.550Z,0.00
2022-12-20T05:04:33.145Z,0.00
2022-12-20T05:05:27.926Z,0.00
2022-12-20T05:06:26.902Z,0.00
2022-12-20T05:07:27.499Z,0.00
2022-12-20T05:08:27.512Z,0.00
2022-12-20T05:09:27.121Z,0.00
2022-12-20T05:10:27.524Z,0.00
2022-12-20T05:11:27.458Z,0.00
2022-12-20T05:12:27.420Z,0.00
2022-12-20T05:13:27.423Z,0.00
2022-12-20T05:14:26.823Z,0.00
2022-12-20T05:15:27.479Z,0.00
2022-12-20T05:16:26.877Z,0.00
2022-12-20T05:17:26.861Z,0.00
2022-12-20T05:18:26.906Z,0.00
2022-12-20T05:19:26.976Z,0.00
2022-12-20T05:20:26.984Z,0.00
2022-12-20T05:21:27.088Z,0.00
2022-12-20T05:22:27.108Z,0.00
2022-12-20T05:23:27.214Z,0.00
2022-12-20T05:24:26.717Z,0.00
2022-12-20T05:25:27.308Z,0.00
2022-12-20T05:26:27.418Z,0.00
2022-12-20T05:27:27.428Z,0.00
2022-12-20T05:28:26.691Z,0.00
2022-12-20T05:29:27.457Z,0.00
2022-12-20T05:30:27.500Z,0.00
2022-12-20T05:31:27.578Z,0.00
2022-12-20T05:32:27.266Z,0.00
2022-12-20T05:33:33.713Z,0.00
2022-12-20T05:34:27.790Z,0.00
2022-12-20T05:35:27.339Z,0.00
2022-12-20T05:36:27.262Z,0.00
2022-12-20T05:37:27.420Z,0.00
2022-12-20T05:38:27.511Z,0.00
2022-12-20T05:39:27.209Z,0.00
2022-12-20T05:40:27.354Z,0.00
2022-12-20T05:41:27.267Z,0.00
2022-12-20T05:42:27.167Z,0.00
2022-12-20T05:43:27.334Z,0.00
2022-12-20T05:44:26.454Z,0.00
2022-12-20T05:45:26.410Z,0.00
2022-12-20T05:46:26.502Z,0.00
2022-12-20T05:47:26.535Z,0.00
2022-12-20T05:48:26.372Z,0.00
2022-12-20T05:49:26.654Z,0.00
2022-12-20T05:50:26.688Z,0.00
2022-12-20T05:51:26.724Z,0.00
2022-12-20T05:52:26.775Z,0.00
2022-12-20T05:53:26.891Z,0.00
2022-12-20T05:54:26.893Z,0.00
2022-12-20T05:55:26.947Z,0.00
2022-12-20T05:56:27.013Z,0.00
2022-12-20T05:57:27.045Z,0.00
2022-12-20T05:58:27.114Z,0.00
2022-12-20T05:59:26.424Z,0.00
2022-12-20T06:00:26.983Z,0.00
2022-12-20T06:01:27.167Z,0.00
2022-12-20T06:02:27.135Z,0.00
2022-12-20T06:03:27.123Z,0.00
2022-12-20T06:04:27.430Z,0.00
2022-12-20T06:05:27.014Z,0.00
2022-12-20T06:06:27.500Z,0.00
2022-12-20T06:07:27.079Z,0.00
2022-12-20T06:08:26.981Z,0.00
2022-12-20T06:09:27.491Z,0.00
2022-12-20T06:10:26.321Z,0.00
2022-12-20T06:11:30.213Z,0.00
2022-12-20T06:12:26.861Z,0.00
2022-12-20T06:13:26.761Z,0.00
2022-12-20T06:14:26.019Z,0.00
2022-12-20T06:15:26.125Z,0.00
2022-12-20T06:16:26.128Z,0.00
2022-12-20T06:17:26.228Z,0.00
2022-12-20T06:18:26.866Z,0.00
2022-12-20T06:19:26.080Z,0.00
2022-12-20T06:20:27.475Z,0.00
2022-12-20T06:21:26.297Z,0.00
2022-12-20T06:22:25.981Z,0.00
2022-12-20T06:23:26.151Z,0.00
2022-12-20T06:24:26.682Z,0.00
2022-12-20T06:25:26.793Z,0.00
2022-12-20T06:26:26.089Z,0.00
2022-12-20T06:27:26.695Z,0.00
2022-12-20T06:28:25.858Z,0.00
2022-12-20T06:29:26.376Z,0.00
2022-12-20T06:30:31.824Z,0.00
2022-12-20T06:31:27.054Z,0.00
2022-12-20T06:32:26.750Z,0.00
2022-12-20T06:33:26.664Z,0.00
2022-12-20T06:34:27.136Z,0.00
2022-12-20T06:35:26.702Z,0.00
2022-12-20T06:36:26.191Z,0.00
2022-12-20T06:37:27.449Z,0.00
2022-12-20T06:38:26.481Z,0.00
2022-12-20T06:39:26.577Z,0.00
2022-12-20T06:40:26.705Z,0.00
2022-12-20T06:41:26.628Z,0.00
2022-12-20T06:42:26.577Z,0.00
2022-12-20T06:43:26.296Z,0.00
2022-12-20T06:44:25.648Z,0.00
2022-12-20T06:45:25.765Z,0.00
2022-12-20T06:46:25.809Z,0.00
2022-12-20T06:47:25.611Z,0.00
2022-12-20T06:48:25.892Z,0.00
2022-12-20T06:49:25.938Z,0.00
2022-12-20T06:50:26.022Z,0.00
2022-12-20T06:51:25.571Z,0.00
2022-12-20T06:52:26.140Z,0.00
2022-12-20T06:53:26.155Z,0.00
2022-12-20T06:54:26.204Z,0.00
2022-12-20T06:55:25.581Z,0.00
2022-12-20T06:56:26.215Z,0.00
2022-12-20T06:57:26.148Z,0.00
2022-12-20T06:58:26.287Z,0.00
2022-12-20T06:59:26.155Z,0.00
2022-12-20T07:00:25.757Z,1.00
2022-12-20T07:01:26.233Z,0.00
2022-12-20T07:02:27.964Z,1.00
2022-12-20T07:03:26.440Z,1.00
2022-12-20T07:04:26.216Z,1.00
2022-12-20T07:05:26.123Z,2.00
2022-12-20T07:06:26.049Z,2.00
2022-12-20T07:07:26.196Z,3.00
2022-12-20T07:08:26.103Z,2.00
2022-12-20T07:09:26.004Z,2.00
2022-12-20T07:10:26.105Z,7.00
2022-12-20T07:11:26.230Z,5.00
2022-12-20T07:12:25.241Z,9.00
2022-12-20T07:14:26.203Z,10.00
2022-12-20T07:15:25.557Z,11.00
2022-12-20T07:16:25.441Z,10.00
2022-12-20T07:17:25.323Z,10.00
2022-12-20T07:18:25.468Z,10.00
2022-12-20T07:19:25.603Z,8.00
2022-12-20T07:20:25.944Z,13.00
2022-12-20T07:21:26.059Z,14.00
2022-12-20T07:22:25.752Z,16.00
2022-12-20T07:23:25.859Z,18.00
2022-12-20T07:24:25.822Z,22.00
2022-12-20T07:25:25.941Z,21.00
2022-12-20T07:26:26.060Z,23.00
2022-12-20T07:27:25.809Z,23.00
2022-12-20T07:28:26.200Z,23.00
2022-12-20T07:29:25.021Z,23.00
2022-12-20T07:30:26.164Z,24.00
2022-12-20T07:31:26.076Z,24.00
2022-12-20T07:32:25.871Z,26.00
2022-12-20T07:33:25.740Z,31.00
2022-12-20T07:34:26.501Z,35.00
2022-12-20T07:35:25.378Z,41.00
2022-12-20T07:36:25.719Z,47.00
2022-12-20T07:37:25.813Z,51.00
2022-12-20T07:38:25.761Z,56.00
2022-12-20T07:39:25.913Z,57.00
2022-12-20T07:40:24.918Z,56.00
2022-12-20T07:41:24.925Z,58.00
2022-12-20T07:42:27.708Z,57.00
2022-12-20T07:43:25.857Z,54.00
2022-12-20T07:44:24.992Z,52.00
2022-12-20T07:45:25.045Z,51.00
2022-12-20T07:46:25.119Z,53.00
2022-12-20T07:47:25.142Z,59.00
2022-12-20T07:48:25.202Z,63.00
2022-12-20T07:49:25.252Z,64.00
2022-12-20T07:50:25.287Z,69.00
2022-12-20T07:51:25.038Z,68.00
2022-12-20T07:52:25.420Z,77.00
2022-12-20T07:53:25.491Z,85.00
2022-12-20T07:54:25.523Z,98.00
2022-12-20T07:55:25.628Z,114.00
2022-12-20T07:56:25.593Z,119.00
2022-12-20T07:57:25.732Z,148.00
2022-12-20T07:58:26.551Z,174.00
2022-12-20T07:59:25.549Z,192.00
2022-12-20T08:00:25.408Z,206.00
2022-12-20T08:01:25.645Z,220.00
2022-12-20T08:02:25.081Z,225.00
2022-12-20T08:03:25.598Z,221.00
2022-12-20T08:04:24.862Z,216.00
2022-12-20T08:05:24.711Z,213.00
2022-12-20T08:06:25.437Z,218.00
2022-12-20T08:07:24.545Z,219.00
2022-12-20T08:08:25.479Z,216.00
2022-12-20T08:09:25.390Z,219.00
2022-12-20T08:10:24.494Z,228.00
2022-12-20T08:11:24.510Z,232.00
2022-12-20T08:12:25.371Z,248.00
2022-12-20T08:13:24.726Z,264.00
2022-12-20T08:14:24.622Z,270.00
2022-12-20T08:15:24.764Z,266.00
2022-12-20T08:16:24.774Z,264.00
2022-12-20T08:17:24.755Z,264.00
2022-12-20T08:18:24.846Z,263.00
2022-12-20T08:19:31.798Z,261.00
2022-12-20T08:20:26.140Z,265.00
2022-12-20T08:21:26.519Z,262.00
2022-12-20T08:22:25.105Z,266.00
2022-12-20T08:23:25.084Z,268.00
2022-12-20T08:24:25.195Z,275.00
2022-12-20T08:25:25.110Z,278.00
2022-12-20T08:26:25.250Z,284.00
2022-12-20T08:27:24.434Z,294.00
2022-12-20T08:28:24.295Z,308.00
2022-12-20T08:29:25.224Z,313.00
2022-12-20T08:30:24.295Z,310.00
2022-12-20T08:31:24.330Z,315.00
2022-12-20T08:32:24.384Z,345.00
2022-12-20T08:33:24.370Z,389.00
2022-12-20T08:34:24.255Z,380.00
2022-12-20T08:35:24.247Z,323.00
2022-12-20T08:36:24.236Z,306.00
2022-12-20T08:37:24.313Z,323.00
2022-12-20T08:38:24.385Z,340.00
2022-12-20T08:39:24.134Z,333.00
2022-12-20T08:40:24.231Z,328.00
2022-12-20T08:41:24.242Z,339.00
2022-12-20T08:42:24.173Z,358.00
2022-12-20T08:43:24.203Z,384.00
2022-12-20T08:44:24.175Z,408.00
2022-12-20T08:45:24.202Z,453.00
2022-12-20T08:46:24.379Z,462.00
2022-12-20T08:47:24.255Z,454.00
2022-12-20T08:48:24.246Z,453.00
2022-12-20T08:49:24.329Z,480.00
2022-12-20T08:50:24.346Z,491.00
2022-12-20T08:51:24.063Z,489.00
2022-12-20T08:52:24.346Z,477.00
2022-12-20T08:53:24.245Z,484.00
2022-12-20T08:54:24.255Z,492.00
2022-12-20T08:55:27.933Z,468.00
2022-12-20T08:56:24.246Z,447.00
2022-12-20T08:57:24.252Z,477.00
2022-12-20T08:58:23.994Z,517.00
2022-12-20T08:59:24.272Z,539.00
2022-12-20T09:00:24.029Z,566.00
2022-12-20T09:01:24.380Z,631.00
2022-12-20T09:02:24.365Z,679.00
2022-12-20T09:03:24.318Z,696.00
2022-12-20T09:04:24.251Z,677.00
2022-12-20T09:05:24.329Z,666.00
2022-12-20T09:06:24.238Z,652.00
2022-12-20T09:07:24.352Z,635.00
2022-12-20T09:08:24.239Z,661.00
2022-12-20T09:09:24.374Z,677.00
2022-12-20T09:10:24.253Z,656.00
2022-12-20T09:11:24.242Z,626.00
2022-12-20T09:12:24.328Z,591.00
2022-12-20T09:13:23.793Z,568.00
2022-12-20T09:14:23.871Z,549.00
2022-12-20T09:15:23.914Z,547.00
2022-12-20T09:16:25.124Z,582.00
2022-12-20T09:17:23.949Z,635.00
2022-12-20T09:18:24.012Z,652.00
2022-12-20T09:19:24.108Z,642.00
2022-12-20T09:20:24.245Z,629.00
2022-12-20T09:21:24.168Z,625.00
2022-12-20T09:22:24.069Z,630.00
2022-12-20T09:23:24.026Z,666.00
2022-12-20T09:24:24.255Z,717.00
2022-12-20T09:25:24.227Z,748.00
2022-12-20T09:26:23.592Z,803.00
2022-12-20T09:27:23.854Z,837.00
2022-12-20T09:28:24.244Z,849.00
2022-12-20T09:29:29.646Z,849.00
2022-12-20T09:30:24.775Z,860.00
2022-12-20T09:31:26.529Z,883.00
2022-12-20T09:32:23.625Z,886.00
2022-12-20T09:33:24.308Z,881.00
2022-12-20T09:34:23.801Z,878.00
2022-12-20T09:35:23.676Z,875.00
2022-12-20T09:36:23.616Z,853.00
2022-12-20T09:37:28.873Z,868.00
2022-12-20T09:38:24.227Z,868.00
2022-12-20T09:39:24.171Z,884.00
2022-12-20T09:40:23.936Z,877.00
2022-12-20T09:41:23.335Z,789.00
2022-12-20T09:42:23.453Z,728.00
2022-12-20T09:43:23.455Z,725.00
2022-12-20T09:44:23.358Z,782.00
2022-12-20T09:45:23.561Z,843.00
2022-12-20T09:46:23.721Z,919.00
2022-12-20T09:47:23.675Z,977.00
2022-12-20T09:48:23.788Z,1031.00
2022-12-20T09:49:23.787Z,1065.00
2022-12-20T09:50:23.898Z,1077.00
2022-12-20T09:51:23.917Z,1122.00
2022-12-20T09:52:23.915Z,1158.00
2022-12-20T09:53:23.168Z,1179.00
2022-12-20T09:54:23.974Z,1217.00
2022-12-20T09:55:23.319Z,1237.00
2022-12-20T09:56:24.059Z,1209.00
2022-12-20T09:57:23.925Z,1191.00
2022-12-20T09:58:23.335Z,1194.00
2022-12-20T09:59:24.267Z,1202.00
2022-12-20T10:00:23.088Z,1184.00
2022-12-20T10:01:25.281Z,1153.00
2022-12-20T10:02:55.649Z,1132.00
2022-12-20T10:03:24.433Z,1090.00
2022-12-20T10:04:24.064Z,1073.00
2022-12-20T10:05:23.053Z,1031.00
2022-12-20T10:06:23.394Z,1024.00
2022-12-20T10:07:23.003Z,1001.00
2022-12-20T10:08:22.995Z,980.00
2022-12-20T10:09:24.341Z,942.00
2022-12-20T10:10:22.949Z,938.00
2022-12-20T10:11:23.033Z,979.00
2022-12-20T10:12:22.956Z,1050.00
2022-12-20T10:13:23.123Z,1113.00
2022-12-20T10:14:23.134Z,1161.00
2022-12-20T10:15:24.265Z,1208.00
2022-12-20T10:16:23.318Z,1238.00
2022-12-20T10:17:28.912Z,1244.00
2022-12-20T10:18:24.291Z,1220.00
2022-12-20T10:19:23.480Z,1186.00
2022-12-20T10:20:23.509Z,1143.00
2022-12-20T10:21:23.591Z,1127.00
2022-12-20T10:22:23.597Z,1143.00
2022-12-20T10:23:27.943Z,1212.00
2022-12-20T10:24:23.776Z,1251.00
2022-12-20T10:25:23.820Z,1242.00
2022-12-20T10:26:23.825Z,1183.00
2022-12-20T10:27:23.826Z,1150.00
2022-12-20T10:28:22.733Z,1209.00
2022-12-20T10:29:23.967Z,1245.00
2022-12-20T10:30:22.726Z,1162.00
2022-12-20T10:31:22.761Z,1071.00
2022-12-20T10:32:24.176Z,1022.00
2022-12-20T10:33:24.092Z,1032.00
2022-12-20T10:34:24.281Z,1088.00
2022-12-20T10:35:24.300Z,1132.00
2022-12-20T10:36:22.632Z,1161.00
2022-12-20T10:37:24.305Z,1191.00
2022-12-20T10:38:24.315Z,1183.00
2022-12-20T10:39:22.577Z,1182.00
2022-12-20T10:40:22.579Z,1150.00
2022-12-20T10:41:23.547Z,1122.00
2022-12-20T10:42:22.709Z,1088.00
2022-12-20T10:43:22.698Z,1137.00
2022-12-20T10:44:22.820Z,1201.00
2022-12-20T10:45:22.938Z,1301.00
2022-12-20T10:46:22.959Z,1325.00
2022-12-20T10:47:23.039Z,1320.00
2022-12-20T10:48:22.488Z,1307.00
2022-12-20T10:49:23.242Z,1276.00
2022-12-20T10:50:23.194Z,1292.00
2022-12-20T10:51:23.179Z,1329.00
2022-12-20T10:52:23.265Z,1329.00
2022-12-20T10:53:23.171Z,1346.00
2022-12-20T10:54:23.393Z,1368.00
2022-12-20T10:55:23.397Z,1420.00
2022-12-20T10:56:23.507Z,1456.00
2022-12-20T10:57:23.514Z,1425.00
2022-12-20T10:58:23.617Z,1342.00
2022-12-20T10:59:23.652Z,1355.00
2022-12-20T11:00:23.266Z,1311.00
2022-12-20T11:01:23.531Z,1245.00
2022-12-20T11:02:23.457Z,1203.00
2022-12-20T11:03:23.541Z,1157.00
2022-12-20T11:04:23.194Z,1122.00
2022-12-20T11:05:23.099Z,1141.00
2022-12-20T11:06:22.961Z,1179.00
2022-12-20T11:07:22.367Z,1219.00
2022-12-20T11:08:37.739Z,1215.00
2022-12-20T11:09:23.973Z,1176.00
2022-12-20T11:10:22.379Z,1163.00
2022-12-20T11:11:22.297Z,1192.00
2022-12-20T11:12:22.449Z,1190.00
2022-12-20T11:13:22.270Z,1195.00
2022-12-20T11:14:22.278Z,1192.00
2022-12-20T11:15:31.636Z,1164.00
2022-12-20T11:16:27.789Z,1188.00
2022-12-20T11:17:31.559Z,1164.00
2022-12-20T11:18:22.512Z,1147.00
2022-12-20T11:19:27.664Z,1134.00
2022-12-20T11:20:22.745Z,1104.00
2022-12-20T11:21:27.874Z,1060.00
2022-12-20T11:22:23.562Z,943.00
2022-12-20T11:23:22.838Z,827.00
2022-12-20T11:24:23.122Z,734.00
2022-12-20T11:25:22.057Z,705.00
2022-12-20T11:26:22.816Z,727.00
2022-12-20T11:27:22.318Z,750.00
2022-12-20T11:28:21.992Z,759.00
2022-12-20T11:29:23.323Z,760.00
2022-12-20T11:30:23.315Z,735.00
2022-12-20T11:31:23.422Z,735.00
2022-12-20T11:32:23.440Z,756.00
2022-12-20T11:33:22.655Z,795.00
2022-12-20T11:34:22.015Z,839.00
2022-12-20T11:35:22.759Z,875.00
2022-12-20T11:36:21.954Z,897.00
2022-12-20T11:37:23.613Z,914.00
2022-12-20T11:38:21.836Z,987.00
2022-12-20T11:39:23.763Z,1093.00
2022-12-20T11:40:21.967Z,1178.00
2022-12-20T11:41:21.956Z,1151.00
2022-12-20T11:42:22.074Z,1007.00
2022-12-20T11:43:22.084Z,955.00
2022-12-20T11:44:26.727Z,938.00
2022-12-20T11:45:24.088Z,912.00
2022-12-20T11:46:22.457Z,881.00
2022-12-20T11:47:22.094Z,817.00
2022-12-20T11:48:22.495Z,764.00
2022-12-20T11:49:21.680Z,858.00
2022-12-20T11:50:21.669Z,1034.00
2022-12-20T11:51:26.238Z,1140.00
2022-12-20T11:52:21.639Z,1235.00
2022-12-20T11:53:22.664Z,1210.00
2022-12-20T11:54:22.652Z,1353.00
2022-12-20T11:55:22.762Z,1653.00
2022-12-20T11:56:22.795Z,1763.00
2022-12-20T11:57:22.885Z,1819.00
2022-12-20T11:58:22.087Z,1657.00
2022-12-20T12:00:31.669Z,1222.00
2022-12-20T12:01:31.727Z,1280.00
2022-12-20T12:02:31.718Z,1168.00
2022-12-20T12:03:31.693Z,1121.00
2022-12-20T12:04:31.609Z,1109.00
2022-12-20T12:05:31.700Z,1059.00
2022-12-20T12:06:31.681Z,1067.00
2022-12-20T12:07:31.569Z,1117.00
2022-12-20T12:08:31.859Z,1105.00
2022-12-20T12:09:31.554Z,1090.00
2022-12-20T12:10:31.704Z,1111.00
2022-12-20T12:12:05.233Z,1180.00
2022-12-20T12:12:32.506Z,1178.00
2022-12-20T12:13:31.684Z,1126.00
2022-12-20T12:14:31.686Z,1080.00
2022-12-20T12:15:31.630Z,1010.00
2022-12-20T12:16:31.627Z,946.00
2022-12-20T12:17:31.455Z,940.00
2022-12-20T12:18:31.485Z,1008.00
2022-12-20T12:19:31.425Z,1043.00
2022-12-20T12:20:31.400Z,1114.00
2022-12-20T12:21:31.395Z,1142.00
2022-12-20T12:22:31.387Z,1154.00
2022-12-20T12:23:31.426Z,1150.00
2022-12-20T12:24:31.370Z,1151.00
2022-12-20T12:25:31.338Z,1154.00
2022-12-20T12:26:31.329Z,1179.00
2022-12-20T12:27:31.379Z,1265.00
2022-12-20T12:28:31.623Z,1274.00
2022-12-20T12:29:31.318Z,1186.00
2022-12-20T12:30:31.277Z,1105.00
2022-12-20T12:31:31.318Z,1132.00
2022-12-20T12:32:31.286Z,1208.00
2022-12-20T12:33:38.198Z,1271.00
2022-12-20T12:34:32.245Z,1257.00
2022-12-20T12:35:31.227Z,1210.00
2022-12-20T12:36:31.344Z,1141.00
2022-12-20T12:37:31.195Z,1039.00
2022-12-20T12:38:31.199Z,1019.00
2022-12-20T12:39:31.166Z,1106.00
2022-12-20T12:40:31.163Z,1172.00
2022-12-20T12:41:31.137Z,1163.00
2022-12-20T12:42:31.154Z,1163.00
2022-12-20T12:43:31.169Z,1145.00
2022-12-20T12:44:31.106Z,1091.00
2022-12-20T12:45:31.131Z,1054.00
2022-12-20T12:46:31.149Z,1036.00
2022-12-20T12:47:31.137Z,1032.00
2022-12-20T12:48:31.100Z,1113.00
2022-12-20T12:49:31.023Z,1144.00
2022-12-20T12:50:31.036Z,1192.00
2022-12-20T12:51:31.013Z,1241.00
2022-12-20T12:52:35.523Z,1231.00
2022-12-20T12:53:32.017Z,1137.00
2022-12-20T12:54:30.971Z,1144.00